Terminal Aerodrome Forecast
Issued by NWS

Current Version | Previous Version | Graphics & Text | Print | Product List | Glossary On
Versions: 1 2 3 4 5 6 7 8 9 10 11 12 13 14 15 16 17 18 19 20 21 22
000
FTUS41 KRLX 221721
TAFCKB
TAF
KCKB 221721Z 2218/2318 22010G17KT P6SM SKC
     FM222000 24011G17KT P6SM SCT040
     FM230000 29007KT P6SM SCT030
     FM230400 02004KT P6SM SCT250=

USA.gov is the U.S. government's official web portal to all federal, state and local government web resources and services.